Terminal Aerodrome Forecast
Issued by NWS Quad Cities IA IL

Home | Current Version | Previous Version | Text Only | Print | Product List | Glossary On
Versions: 1 2 3 4 5 6 7 8 9 10 11 12 13 14 15 16 17 18 19 20 21 22 23 24 25 26 27 28
745
FTUS43 KDVN 160508 AAB
TAFDBQ
TAF AMD
KDBQ 160508Z 1605/1624 31010KT 6SM -SHSN BR BKN020
      TEMPO 1606/1609 3SM -SN BR OVC010
     FM161000 32011KT P6SM BKN025
     FM162100 31010KT P6SM BKN035=

USA.gov is the U.S. government's official web portal to all federal, state and local government web resources and services.